Time;durP1;ratioP1;P1;durP2;ratioP2;P2;SDS_P1;SDS_P2;PMS_P1;PMS_P2;Temp;Humidity;BMP_temperature;BMP_pressure;BME280_temperature;BME280_humidity;BME280_pressure;Samples;Min_cycle;Max_cycle;Signal;HPM_P1;HPM_P2
2022/05/29 00:00:48;;;;;;;9.98;3.67;;;10.60;83.80;;;;;;5031939;28;20049;-75
2022/05/29 00:03:15;;;;;;;9.35;3.10;;;10.50;83.40;;;;;;5016588;28;20179;-80
2022/05/29 00:05:42;;;;;;;14.00;3.35;;;10.50;83.00;;;;;;5015638;28;20049;-77
2022/05/29 00:08:13;;;;;;;13.00;3.00;;;10.50;83.00;;;;;;5032062;28;20405;-76
2022/05/29 00:10:41;;;;;;;14.05;3.22;;;10.40;82.90;;;;;;5015513;28;20049;-76
2022/05/29 00:13:08;;;;;;;9.77;3.17;;;10.40;82.60;;;;;;5031967;28;20037;-78
2022/05/29 00:15:34;;;;;;;10.52;2.97;;;10.40;82.40;;;;;;5015521;28;20112;-77
2022/05/29 00:17:59;;;;;;;9.25;3.08;;;10.30;82.60;;;;;;5015574;28;20038;-74
2022/05/29 00:20:25;;;;;;;13.90;3.38;;;10.30;82.50;;;;;;5031876;28;20052;-74
2022/05/29 00:22:51;;;;;;;12.48;3.03;;;10.30;82.60;;;;;;5015483;28;20052;-74
2022/05/29 00:25:18;;;;;;;14.38;3.15;;;10.20;82.80;;;;;;5014873;28;20041;-74
2022/05/29 00:27:45;;;;;;;16.13;3.92;;;10.20;82.60;;;;;;5031532;28;20059;-75
2022/05/29 00:30:13;;;;;;;12.65;3.08;;;10.20;82.60;;;;;;5031673;28;20045;-77
2022/05/29 00:32:39;;;;;;;9.80;2.78;;;10.10;82.70;;;;;;5031776;28;20056;-73
2022/05/29 00:35:05;;;;;;;12.25;4.03;;;10.10;82.80;;;;;;5031985;28;20410;-78
2022/05/29 00:37:41;;;;;;;10.77;3.00;;;10.10;82.80;;;;;;5031939;28;20465;-75
2022/05/29 00:40:55;;;;;;;11.95;2.63;;;10.00;82.90;;;;;;5031632;28;20038;-76
2022/05/29 00:43:21;;;;;;;10.60;2.97;;;10.10;83.10;;;;;;5031945;28;20226;-74
2022/05/29 00:45:55;;;;;;;15.18;3.33;;;10.20;83.20;;;;;;5015201;28;20041;-78
2022/05/29 00:48:22;;;;;;;10.20;3.15;;;10.50;83.60;;;;;;5014952;28;20107;-75
2022/05/29 00:50:51;;;;;;;9.18;3.50;;;10.40;83.90;;;;;;5031766;28;20081;-76
2022/05/29 00:53:17;;;;;;;11.32;2.92;;;10.40;84.20;;;;;;5031525;28;20042;-75
2022/05/29 00:55:49;;;;;;;11.23;3.13;;;10.50;84.70;;;;;;5031536;28;20053;-77
2022/05/29 00:58:16;;;;;;;11.35;3.03;;;10.50;84.70;;;;;;5031544;28;20038;-75
2022/05/29 01:00:42;;;;;;;6.50;2.97;;;10.50;84.80;;;;;;5031332;28;20060;-76
2022/05/29 01:03:08;;;;;;;10.85;4.10;;;10.50;84.90;;;;;;5015358;28;20501;-73
2022/05/29 01:05:36;;;;;;;12.80;3.53;;;10.50;85.20;;;;;;5015036;28;20473;-76
2022/05/29 01:08:16;;;;;;;11.30;3.80;;;10.50;85.30;;;;;;5015027;28;20077;-76
2022/05/29 01:10:52;;;;;;;10.70;3.75;;;10.50;85.40;;;;;;5014834;28;20056;-76
2022/05/29 01:13:17;;;;;;;9.80;3.45;;;10.50;85.50;;;;;;5031779;28;20080;-72
2022/05/29 01:15:58;;;;;;;11.43;3.95;;;10.50;85.80;;;;;;5014962;28;20061;-77
2022/05/29 01:18:56;;;;;;;13.23;3.10;;;10.50;86.00;;;;;;5031449;28;20042;-73
2022/05/29 01:21:59;;;;;;;11.25;4.03;;;10.50;86.10;;;;;;5031164;28;20041;-72
2022/05/29 01:24:54;;;;;;;9.25;3.22;;;10.50;86.00;;;;;;5031540;28;20053;-76
2022/05/29 01:27:44;;;;;;;9.77;2.95;;;10.50;85.90;;;;;;5031309;28;20041;-73
2022/05/29 01:30:21;;;;;;;12.57;3.17;;;10.50;85.90;;;;;;5031190;28;20478;-76
2022/05/29 01:33:10;;;;;;;13.75;4.43;;;10.60;85.70;;;;;;5031208;28;20049;-75
2022/05/29 01:35:44;;;;;;;13.65;3.65;;;10.60;85.60;;;;;;5031226;28;20112;-74
2022/05/29 01:38:20;;;;;;;14.18;3.67;;;10.60;85.60;;;;;;5033642;28;20072;-74
2022/05/29 01:40:58;;;;;;;9.05;3.30;;;10.70;85.60;;;;;;5034797;28;20052;-78
2022/05/29 01:43:39;;;;;;;14.70;3.72;;;10.70;85.50;;;;;;5034791;28;20045;-75
2022/05/29 01:46:16;;;;;;;11.30;3.30;;;10.70;85.10;;;;;;5034748;28;20131;-73
2022/05/29 01:49:00;;;;;;;7.50;3.08;;;10.80;84.20;;;;;;5018331;28;20045;-77
2022/05/29 01:51:35;;;;;;;10.57;2.90;;;10.80;83.80;;;;;;5034844;28;20037;-75
2022/05/29 01:54:19;;;;;;;13.50;3.05;;;10.70;83.40;;;;;;5034626;28;20049;-73
2022/05/29 01:57:01;;;;;;;10.93;2.80;;;10.80;83.40;;;;;;5034828;28;20112;-78
2022/05/29 01:59:45;;;;;;;9.95;3.28;;;10.70;83.40;;;;;;5018271;28;20385;-73
2022/05/29 02:02:15;;;;;;;13.93;3.25;;;10.70;83.40;;;;;;5038047;28;20479;-74
2022/05/29 02:04:47;;;;;;;12.43;4.03;;;10.70;83.40;;;;;;5038034;28;20036;-72
2022/05/29 02:10:14;;;;;;;11.98;2.85;;;10.70;83.80;;;;;;5037424;28;20540;-72
2022/05/29 02:12:45;;;;;;;10.77;2.60;;;10.70;83.60;;;;;;5037801;28;20040;-75
2022/05/29 02:15:16;;;;;;;10.85;2.97;;;10.70;83.60;;;;;;5021066;28;20037;-77
2022/05/29 02:17:47;;;;;;;10.68;3.22;;;10.70;83.50;;;;;;5037653;28;20040;-73
2022/05/29 02:20:20;;;;;;;10.43;2.92;;;10.70;83.50;;;;;;5037678;28;20052;-74
2022/05/29 02:22:49;;;;;;;10.52;2.97;;;10.70;83.50;;;;;;5037741;28;20075;-76
2022/05/29 02:25:21;;;;;;;8.68;2.80;;;10.70;83.50;;;;;;5037646;28;20405;-73
2022/05/29 02:28:02;;;;;;;9.18;2.60;;;10.70;83.60;;;;;;5037548;28;20060;-77
2022/05/29 02:30:49;;;;;;;14.73;3.40;;;10.70;83.60;;;;;;5020534;28;20090;-73
2022/05/29 02:33:25;;;;;;;9.38;3.00;;;10.70;83.20;;;;;;5037418;28;20072;-74
2022/05/29 02:35:54;;;;;;;8.32;2.50;;;10.70;82.60;;;;;;5037245;28;20036;-73
2022/05/29 02:38:22;;;;;;;17.98;2.92;;;10.70;82.30;;;;;;5037323;28;20040;-74
2022/05/29 02:40:52;;;;;;;6.95;2.08;;;10.80;81.90;;;;;;5020546;28;20041;-74
2022/05/29 02:43:42;;;;;;;7.88;3.15;;;10.80;81.70;;;;;;5037047;28;20041;-73
2022/05/29 02:46:21;;;;;;;10.75;2.67;;;10.80;81.80;;;;;;5037010;28;20087;-76
2022/05/29 02:49:13;;;;;;;9.95;3.00;;;10.80;81.80;;;;;;5036358;28;20041;-74
2022/05/29 02:52:14;;;;;;;8.38;2.70;;;10.80;82.00;;;;;;5036938;28;20052;-75
2022/05/29 02:54:40;;;;;;;15.70;3.90;;;10.90;82.00;;;;;;5036796;28;20040;-74
2022/05/29 02:57:06;;;;;;;11.38;2.70;;;10.90;82.30;;;;;;5037064;28;20033;-73
2022/05/29 02:59:46;;;;;;;11.07;3.05;;;10.90;82.60;;;;;;5036600;28;20053;-77
2022/05/29 03:02:33;;;;;;;15.13;3.13;;;11.00;82.80;;;;;;5020350;28;20427;-75
2022/05/29 03:05:06;;;;;;;10.90;3.22;;;11.00;82.90;;;;;;5020108;28;20124;-74
2022/05/29 03:08:11;;;;;;;9.05;2.60;;;11.00;83.00;;;;;;5036536;28;20052;-76
2022/05/29 03:10:45;;;;;;;11.40;2.72;;;10.90;83.30;;;;;;5036309;28;20511;-74
2022/05/29 03:13:29;;;;;;;11.93;3.10;;;10.90;83.40;;;;;;5036416;28;20477;-75
2022/05/29 03:16:09;;;;;;;15.50;2.70;;;10.90;83.70;;;;;;5036365;28;20544;-75
2022/05/29 03:18:52;;;;;;;14.40;3.42;;;10.90;83.80;;;;;;5036293;28;20041;-78
2022/05/29 03:21:27;;;;;;;7.35;2.38;;;10.80;83.90;;;;;;5036385;28;20106;-75
2022/05/29 03:24:08;;;;;;;7.80;2.42;;;10.80;84.10;;;;;;5019757;28;20514;-73
2022/05/29 03:26:40;;;;;;;12.00;2.70;;;10.80;84.10;;;;;;5035926;28;20123;-76
2022/05/29 03:29:17;;;;;;;12.48;3.75;;;10.80;84.00;;;;;;5035952;28;20045;-76
2022/05/29 03:31:44;;;;;;;9.55;3.22;;;10.70;83.90;;;;;;5036170;28;20037;-74
2022/05/29 03:34:13;;;;;;;12.68;3.22;;;10.70;83.70;;;;;;5036270;28;20481;-75
2022/05/29 03:36:45;;;;;;;15.50;3.97;;;10.70;83.80;;;;;;5035930;28;20049;-76
2022/05/29 03:39:11;;;;;;;10.35;2.53;;;10.70;83.70;;;;;;5035813;28;20123;-76
2022/05/29 03:41:44;;;;;;;12.80;2.67;;;10.70;83.80;;;;;;5003413;28;20095;-78
2022/05/29 03:44:11;;;;;;;10.88;2.63;;;10.60;83.70;;;;;;5036121;28;20098;-71
2022/05/29 03:46:39;;;;;;;7.75;2.15;;;10.60;83.90;;;;;;5019321;28;20044;-76
2022/05/29 03:49:08;;;;;;;7.93;2.20;;;10.60;83.60;;;;;;5035752;28;20131;-74
2022/05/29 03:51:35;;;;;;;8.77;1.95;;;10.60;83.30;;;;;;5019940;28;20484;-75
2022/05/29 03:54:01;;;;;;;8.02;2.47;;;10.70;82.70;;;;;;5035556;28;20037;-75
2022/05/29 03:56:27;;;;;;;6.15;1.70;;;10.70;82.60;;;;;;5035847;28;20051;-78
2022/05/29 03:58:53;;;;;;;7.97;2.10;;;10.70;82.60;;;;;;5019171;28;20520;-74
2022/05/29 04:01:19;;;;;;;7.82;1.80;;;10.70;82.30;;;;;;5035238;28;20053;-76
2022/05/29 04:03:45;;;;;;;6.75;1.83;;;10.80;82.20;;;;;;5035794;28;20132;-75
2022/05/29 04:06:10;;;;;;;9.90;2.95;;;10.70;82.10;;;;;;5019105;28;20496;-76
2022/05/29 04:14:06;;;;;;;10.60;2.60;;;10.70;82.50;;;;;;5035272;28;20123;-75
2022/05/29 04:16:32;;;;;;;10.60;2.80;;;10.60;83.10;;;;;;5035502;28;20028;-76
2022/05/29 04:18:57;;;;;;;10.10;2.42;;;10.60;83.50;;;;;;5035139;28;20424;-75
2022/05/29 04:21:23;;;;;;;9.48;1.60;;;10.70;83.60;;;;;;5035217;28;20045;-78
2022/05/29 04:23:49;;;;;;;9.43;2.40;;;10.60;83.60;;;;;;5035438;28;20148;-79
2022/05/29 04:26:16;;;;;;;7.30;2.78;;;10.70;83.50;;;;;;5018693;28;20055;-74
2022/05/29 04:28:42;;;;;;;6.25;2.22;;;10.70;83.40;;;;;;5035345;28;20041;-74
2022/05/29 04:31:08;;;;;;;9.63;2.28;;;10.80;83.20;;;;;;5034941;28;20044;-74
2022/05/29 04:33:34;;;;;;;9.02;2.90;;;10.80;82.90;;;;;;5002308;28;20033;-75
2022/05/29 04:36:00;;;;;;;9.32;2.42;;;10.80;82.60;;;;;;5035036;28;20037;-76
2022/05/29 04:38:29;;;;;;;12.45;3.28;;;10.90;82.70;;;;;;5034974;28;20045;-75
2022/05/29 04:40:56;;;;;;;13.18;3.22;;;10.90;82.80;;;;;;5018437;28;20044;-74
2022/05/29 04:43:22;;;;;;;12.57;2.80;;;10.90;83.00;;;;;;5018564;28;20041;-74
2022/05/29 04:45:53;;;;;;;13.52;2.55;;;10.90;83.00;;;;;;5034917;28;20037;-77
2022/05/29 04:48:18;;;;;;;11.60;2.63;;;10.90;83.20;;;;;;5035003;28;20040;-76
2022/05/29 04:50:44;;;;;;;14.77;3.05;;;10.90;83.30;;;;;;5018295;28;20095;-73
2022/05/29 04:53:10;;;;;;;10.73;2.80;;;11.00;83.50;;;;;;5018659;28;20094;-75
2022/05/29 04:55:39;;;;;;;11.88;3.33;;;11.00;83.60;;;;;;5018483;28;20033;-72
2022/05/29 04:58:06;;;;;;;10.85;2.50;;;11.00;83.60;;;;;;5034837;28;20033;-74
2022/05/29 05:00:32;;;;;;;10.02;2.72;;;11.00;83.50;;;;;;5034467;28;20061;-74
2022/05/29 05:02:58;;;;;;;10.57;2.90;;;11.10;83.40;;;;;;5034813;28;20080;-74
2022/05/29 05:05:24;;;;;;;15.63;2.33;;;11.10;83.40;;;;;;5034688;28;20134;-75
2022/05/29 05:07:49;;;;;;;9.38;2.88;;;11.10;83.00;;;;;;5035009;28;20049;-77
2022/05/29 05:10:17;;;;;;;7.97;2.58;;;11.20;81.80;;;;;;5018223;28;20398;-74
2022/05/29 05:12:43;;;;;;;7.97;2.65;;;11.20;81.60;;;;;;5020587;28;20120;-72
2022/05/29 05:15:11;;;;;;;10.90;2.38;;;11.20;81.10;;;;;;5022206;28;20120;-73
2022/05/29 05:17:37;;;;;;;10.70;2.47;;;11.30;80.70;;;;;;5022403;28;20462;-74
2022/05/29 05:20:04;;;;;;;11.20;1.83;;;11.20;80.60;;;;;;5038541;28;20123;-78
2022/05/29 05:22:30;;;;;;;6.05;2.00;;;11.20;80.40;;;;;;5038477;28;20080;-76
2022/05/29 05:24:55;;;;;;;7.15;1.45;;;11.20;80.60;;;;;;5038476;28;20076;-73
2022/05/29 05:27:21;;;;;;;13.27;1.92;;;11.20;80.60;;;;;;5038550;28;20451;-76
2022/05/29 05:29:48;;;;;;;9.45;1.98;;;11.30;80.30;;;;;;5021806;28;20045;-74
2022/05/29 05:32:14;;;;;;;8.48;2.38;;;11.30;79.90;;;;;;5021951;28;20098;-78
2022/05/29 05:34:43;;;;;;;7.63;2.25;;;11.40;79.60;;;;;;5038271;28;20041;-74
2022/05/29 05:37:10;;;;;;;13.70;3.00;;;11.30;79.70;;;;;;5038485;28;20037;-73
2022/05/29 05:39:36;;;;;;;11.75;2.38;;;11.30;79.80;;;;;;5021906;28;20392;-73
2022/05/29 05:42:02;;;;;;;10.88;2.50;;;11.30;79.90;;;;;;5038563;28;20112;-76
2022/05/29 05:44:27;;;;;;;7.88;2.53;;;11.20;80.20;;;;;;5038086;28;20489;-75
2022/05/29 05:46:53;;;;;;;7.40;2.40;;;11.30;80.30;;;;;;5005636;28;20056;-74
2022/05/29 05:49:21;;;;;;;9.93;2.25;;;11.30;80.20;;;;;;5005365;28;20397;-72
2022/05/29 05:51:47;;;;;;;7.60;2.22;;;11.40;79.80;;;;;;5037965;28;20131;-77
2022/05/29 05:54:13;;;;;;;12.40;2.80;;;11.40;80.00;;;;;;5038294;28;20412;-74
2022/05/29 05:56:43;;;;;;;7.93;2.45;;;11.40;80.00;;;;;;5038068;28;20119;-75
2022/05/29 05:59:10;;;;;;;11.55;2.15;;;11.50;79.80;;;;;;5037862;28;20107;-74
2022/05/29 06:01:36;;;;;;;9.25;2.90;;;11.50;79.70;;;;;;5037714;28;20052;-73
2022/05/29 06:04:02;;;;;;;11.13;2.00;;;11.50;79.30;;;;;;5037691;28;20049;-75
2022/05/29 06:06:27;;;;;;;8.35;2.45;;;11.50;78.90;;;;;;5021376;28;20049;-75
2022/05/29 06:08:53;;;;;;;10.85;2.28;;;11.50;78.90;;;;;;5037695;28;20140;-77
2022/05/29 06:11:19;;;;;;;8.20;2.70;;;11.50;79.10;;;;;;5021033;28;20393;-76
2022/05/29 06:13:44;;;;;;;10.10;2.90;;;11.60;78.60;;;;;;5021473;28;20041;-77
2022/05/29 06:16:12;;;;;;;10.85;2.80;;;11.70;78.20;;;;;;5037808;28;20128;-73
2022/05/29 06:18:37;;;;;;;8.70;1.85;;;11.70;77.10;;;;;;5037687;28;20067;-75
2022/05/29 06:21:04;;;;;;;9.57;1.92;;;11.70;76.60;;;;;;5037840;28;20477;-79
2022/05/29 06:23:31;;;;;;;12.27;3.47;;;11.80;76.40;;;;;;5019718;28;20048;-78
2022/05/29 06:26:12;;;;;;;6.05;1.70;;;11.90;75.10;;;;;;5037480;28;20041;-78
2022/05/29 06:28:38;;;;;;;7.47;2.40;;;11.80;75.20;;;;;;5037247;28;20045;-73
2022/05/29 06:31:05;;;;;;;13.48;2.70;;;11.80;75.20;;;;;;5020694;28;20485;-76
2022/05/29 06:33:30;;;;;;;8.00;2.03;;;11.80;74.70;;;;;;5037197;28;20090;-76
2022/05/29 06:36:23;;;;;;;14.55;3.05;;;11.80;74.90;;;;;;5020637;28;20041;-72
2022/05/29 06:38:49;;;;;;;8.45;1.83;;;11.80;74.50;;;;;;5037168;28;20094;-75
2022/05/29 06:41:17;;;;;;;9.95;2.53;;;11.70;74.30;;;;;;5037033;28;20037;-77
2022/05/29 06:43:42;;;;;;;11.98;2.30;;;11.60;74.20;;;;;;5037021;28;20041;-76
2022/05/29 06:46:09;;;;;;;8.77;1.75;;;11.60;74.30;;;;;;5037043;28;20059;-74
2022/05/29 06:48:37;;;;;;;9.95;1.95;;;11.60;74.20;;;;;;5037113;28;20097;-74
2022/05/29 06:51:07;;;;;;;6.28;1.80;;;11.60;74.30;;;;;;5036766;28;20145;-76
2022/05/29 06:53:33;;;;;;;7.53;1.50;;;11.60;74.10;;;;;;5020663;28;20055;-78
2022/05/29 06:56:03;;;;;;;8.93;1.98;;;11.60;74.10;;;;;;5036775;28;20037;-75
2022/05/29 06:58:29;;;;;;;7.18;1.45;;;11.60;74.60;;;;;;5036981;28;20493;-76
2022/05/29 07:09:09;;;;;;;8.70;2.03;;;11.90;75.40;;;;;;5022359;28;20041;-74
2022/05/29 07:11:39;;;;;;;7.60;1.77;;;11.90;74.30;;;;;;5036746;28;20045;-78
2022/05/29 07:14:05;;;;;;;6.90;1.80;;;11.90;73.70;;;;;;5036383;28;20127;-77
2022/05/29 07:16:33;;;;;;;6.90;2.00;;;11.90;73.40;;;;;;5036698;28;20045;-77
2022/05/29 07:18:59;;;;;;;10.32;1.83;;;11.90;73.80;;;;;;5036512;28;20036;-75
2022/05/29 07:21:25;;;;;;;7.97;1.83;;;11.90;73.60;;;;;;5020132;28;20085;-75
2022/05/29 07:23:51;;;;;;;6.53;1.77;;;11.90;73.70;;;;;;5019721;28;20083;-75
2022/05/29 07:26:17;;;;;;;9.40;1.92;;;11.90;74.20;;;;;;5036386;28;20470;-75
2022/05/29 07:28:43;;;;;;;5.97;1.80;;;11.90;74.40;;;;;;5036019;28;20048;-77
2022/05/29 07:31:09;;;;;;;7.95;2.05;;;11.90;74.50;;;;;;5036125;28;20045;-74
2022/05/29 07:33:35;;;;;;;7.13;2.00;;;11.90;74.70;;;;;;5036261;28;20036;-76
2022/05/29 07:36:00;;;;;;;6.70;2.38;;;11.80;74.80;;;;;;5019211;28;20477;-73
2022/05/29 07:38:28;;;;;;;11.10;1.90;;;11.80;75.20;;;;;;5036597;28;20045;-78
2022/05/29 07:40:54;;;;;;;7.68;1.45;;;11.80;75.40;;;;;;5035808;28;20131;-77
2022/05/29 07:43:20;;;;;;;5.97;1.98;;;11.90;75.70;;;;;;5003093;28;20179;-77
2022/05/29 07:45:47;;;;;;;7.10;1.33;;;11.90;75.80;;;;;;5035804;28;20128;-74
2022/05/29 07:48:17;;;;;;;7.53;1.95;;;12.00;76.00;;;;;;5035808;28;20049;-76
2022/05/29 07:50:43;;;;;;;7.35;1.60;;;12.00;74.70;;;;;;5035621;28;20052;-76
2022/05/29 07:53:09;;;;;;;4.00;1.08;;;12.00;74.20;;;;;;5035673;28;20504;-79
2022/05/29 07:55:38;;;;;;;8.63;1.73;;;12.10;74.20;;;;;;5035636;28;20036;-76
2022/05/29 07:58:06;;;;;;;10.18;2.15;;;12.00;74.40;;;;;;5019080;28;20087;-77
2022/05/29 08:00:33;;;;;;;8.73;1.52;;;12.10;74.90;;;;;;5035266;28;20053;-76
2022/05/29 08:02:59;;;;;;;4.90;1.60;;;12.20;74.70;;;;;;5035487;28;20056;-74
2022/05/29 08:05:25;;;;;;;8.73;1.70;;;12.30;74.40;;;;;;5035511;28;20047;-76
2022/05/29 08:07:51;;;;;;;5.72;1.55;;;12.40;74.50;;;;;;5035359;28;20036;-75
2022/05/29 08:10:19;;;;;;;6.13;2.42;;;12.50;74.20;;;;;;5035404;28;20106;-73
2022/05/29 08:12:45;;;;;;;5.50;0.88;;;12.50;73.70;;;;;;5035435;28;20048;-75
2022/05/29 08:15:12;;;;;;;2.50;1.05;;;12.50;71.10;;;;;;5019107;28;20091;-76
2022/05/29 08:17:39;;;;;;;6.05;1.10;;;12.50;70.90;;;;;;5035253;28;20040;-75
2022/05/29 08:20:06;;;;;;;4.43;1.30;;;12.50;71.00;;;;;;5035183;28;20045;-72
2022/05/29 08:22:31;;;;;;;6.22;1.30;;;12.50;71.20;;;;;;5035155;28;20409;-76
2022/05/29 08:30:38;;;;;;;3.60;0.88;;;12.50;70.70;;;;;;5034937;28;20071;-75
2022/05/29 08:33:06;;;;;;;5.38;1.13;;;12.40;71.20;;;;;;5035346;28;20088;-73
2022/05/29 08:35:33;;;;;;;8.18;2.35;;;12.40;71.30;;;;;;5035408;28;20049;-76
2022/05/29 08:38:00;;;;;;;3.55;1.10;;;12.40;72.90;;;;;;5035374;28;20374;-76
2022/05/29 08:40:28;;;;;;;4.07;1.42;;;12.30;72.90;;;;;;5018465;28;20049;-74
2022/05/29 08:42:54;;;;;;;8.32;1.33;;;12.20;73.50;;;;;;5018433;28;20052;-74
2022/05/29 08:45:20;;;;;;;5.10;1.90;;;12.10;74.60;;;;;;5034939;28;20041;-75
2022/05/29 08:47:46;;;;;;;8.70;1.80;;;12.00;75.30;;;;;;5034136;28;20048;-73
2022/05/29 08:50:37;;;;;;;8.30;2.20;;;12.00;75.60;;;;;;5018386;28;20055;-77
2022/05/29 08:53:08;;;;;;;8.02;1.88;;;12.00;76.50;;;;;;5034954;28;20124;-76
2022/05/29 08:55:39;;;;;;;8.70;1.80;;;11.90;77.40;;;;;;5018745;28;20052;-73
2022/05/29 08:58:35;;;;;;;9.07;1.90;;;11.80;78.00;;;;;;5034895;28;20037;-76
2022/05/29 09:01:14;;;;;;;9.73;1.92;;;11.70;79.10;;;;;;5034701;28;20140;-76
2022/05/29 09:03:57;;;;;;;6.28;1.55;;;11.60;79.40;;;;;;5018415;28;20049;-77
2022/05/29 09:06:30;;;;;;;9.15;2.50;;;11.60;79.80;;;;;;5035080;28;20423;-76
2022/05/29 09:08:55;;;;;;;8.77;1.55;;;11.60;79.90;;;;;;5035024;28;20409;-76
2022/05/29 09:11:27;;;;;;;7.32;2.75;;;11.70;79.80;;;;;;5018339;28;20033;-75
2022/05/29 09:13:56;;;;;;;7.38;2.15;;;11.70;79.70;;;;;;5035077;28;20401;-75
2022/05/29 09:16:29;;;;;;;7.13;2.10;;;11.80;79.30;;;;;;5035033;28;20563;-76
2022/05/29 09:19:14;;;;;;;9.70;2.30;;;11.90;79.00;;;;;;5034731;28;20041;-74
2022/05/29 09:21:58;;;;;;;5.60;1.83;;;12.00;78.10;;;;;;5034971;28;20037;-75
2022/05/29 09:24:51;;;;;;;6.43;1.50;;;12.20;75.90;;;;;;5034690;28;20040;-76
2022/05/29 09:27:17;;;;;;;7.35;1.58;;;12.20;74.30;;;;;;5018149;28;20036;-79
2022/05/29 09:29:43;;;;;;;8.43;2.30;;;12.30;73.00;;;;;;5018089;28;20393;-80
2022/05/29 09:32:22;;;;;;;11.32;2.55;;;12.30;72.70;;;;;;5034674;28;20037;-77
2022/05/29 09:35:05;;;;;;;10.50;1.77;;;12.40;72.70;;;;;;5034818;28;20388;-75
2022/05/29 09:37:49;;;;;;;3.85;1.02;;;12.30;72.70;;;;;;5034624;28;20048;-74
2022/05/29 09:40:23;;;;;;;4.50;1.10;;;12.30;72.90;;;;;;5034929;28;20110;-78
2022/05/29 09:42:48;;;;;;;6.50;2.35;;;12.40;72.50;;;;;;5034579;28;20076;-81
2022/05/29 09:45:27;;;;;;;8.27;1.67;;;12.40;72.50;;;;;;5034646;28;20079;-75
2022/05/29 09:50:51;;;;;;;5.45;1.88;;;12.40;72.20;;;;;;5034350;28;20048;-74
2022/05/29 09:53:25;;;;;;;6.97;2.05;;;12.40;72.40;;;;;;5034397;28;20041;-78
2022/05/29 09:56:13;;;;;;;5.78;2.13;;;12.30;72.50;;;;;;5018030;28;20037;-80
2022/05/29 09:59:10;;;;;;;5.15;1.55;;;12.30;72.40;;;;;;5020018;28;20041;-74
2022/05/29 10:01:40;;;;;;;7.85;1.20;;;12.20;73.30;;;;;;5036705;28;20049;-75
2022/05/29 10:04:30;;;;;;;9.75;1.60;;;12.20;73.60;;;;;;5037746;28;20040;-78
2022/05/29 10:06:58;;;;;;;6.82;1.20;;;12.20;74.30;;;;;;5021610;28;20048;-76
2022/05/29 10:09:27;;;;;;;5.95;1.40;;;12.20;74.10;;;;;;5037582;28;20045;-78
2022/05/29 10:11:59;;;;;;;5.40;1.50;;;12.10;73.80;;;;;;5037882;28;20033;-78
2022/05/29 10:14:39;;;;;;;5.00;1.00;;;12.00;72.90;;;;;;5037567;28;20139;-76
2022/05/29 10:17:35;;;;;;;3.80;1.02;;;12.00;72.50;;;;;;5037590;28;20072;-77
2022/05/29 10:20:01;;;;;;;3.25;0.93;;;12.00;72.40;;;;;;5017852;28;20053;-77
2022/05/29 10:22:39;;;;;;;2.83;0.73;;;12.10;72.60;;;;;;5021479;28;20048;-77
2022/05/29 10:25:20;;;;;;;2.42;0.63;;;12.20;72.10;;;;;;5037792;28;20044;-81
2022/05/29 10:27:48;;;;;;;4.43;0.75;;;12.30;71.10;;;;;;5037361;28;20045;-77
2022/05/29 10:30:36;;;;;;;3.67;0.50;;;12.40;70.30;;;;;;5037182;28;20049;-75
2022/05/29 10:33:09;;;;;;;5.07;1.00;;;12.50;70.00;;;;;;5037614;28;20045;-75
2022/05/29 10:35:40;;;;;;;4.75;1.30;;;12.60;70.30;;;;;;5037131;28;20045;-74
2022/05/29 10:38:32;;;;;;;3.95;1.27;;;12.70;70.70;;;;;;5037392;28;20033;-78
2022/05/29 10:41:00;;;;;;;7.15;1.00;;;13.00;70.20;;;;;;5016227;28;20061;-76
2022/05/29 10:43:39;;;;;;;3.88;1.20;;;13.10;70.00;;;;;;5037240;28;20041;-78
2022/05/29 10:46:18;;;;;;;5.25;1.30;;;13.20;69.70;;;;;;5020504;28;20049;-75
2022/05/29 10:49:05;;;;;;;5.15;1.42;;;13.20;69.10;;;;;;5037192;28;20048;-78
2022/05/29 10:51:46;;;;;;;6.88;1.25;;;13.20;69.10;;;;;;5037069;28;20037;-77
2022/05/29 10:54:23;;;;;;;5.18;1.27;;;13.10;70.00;;;;;;5036932;28;20044;-77
2022/05/29 10:56:58;;;;;;;3.33;1.08;;;13.10;69.90;;;;;;5037120;28;20044;-79
2022/05/29 10:59:59;;;;;;;4.85;1.02;;;13.00;70.00;;;;;;5020200;28;20045;-75
2022/05/29 11:06:08;;;;;;;6.90;1.23;;;13.10;70.10;;;;;;5036602;28;20183;-75
2022/05/29 11:08:48;;;;;;;6.53;1.55;;;13.10;70.40;;;;;;5036931;28;20408;-77
2022/05/29 11:11:22;;;;;;;8.13;2.05;;;13.00;71.70;;;;;;5035889;28;20051;-78
2022/05/29 11:14:25;;;;;;;8.63;1.67;;;12.80;73.60;;;;;;5020137;28;20055;-78
2022/05/29 11:17:06;;;;;;;5.50;1.70;;;12.60;74.00;;;;;;5036535;28;20045;-77
2022/05/29 11:19:57;;;;;;;8.02;1.85;;;12.60;74.00;;;;;;5036364;28;20041;-77
2022/05/29 11:22:30;;;;;;;11.35;5.95;;;12.50;73.60;;;;;;5036327;28;20045;-75
2022/05/29 11:25:27;;;;;;;5.45;2.03;;;12.50;73.70;;;;;;5036329;28;20041;-76
2022/05/29 11:28:20;;;;;;;8.93;1.73;;;12.50;73.00;;;;;;5036230;28;20052;-78
2022/05/29 11:31:01;;;;;;;8.50;1.80;;;12.60;72.20;;;;;;5036095;28;20081;-76
2022/05/29 11:33:41;;;;;;;7.00;1.77;;;12.60;72.00;;;;;;5036412;28;20043;-78
2022/05/29 11:36:16;;;;;;;6.30;1.95;;;12.70;71.40;;;;;;5036191;28;20040;-79
2022/05/29 11:39:00;;;;;;;4.75;1.60;;;12.80;71.70;;;;;;5036013;28;20041;-74
2022/05/29 11:41:56;;;;;;;6.55;1.92;;;13.00;71.20;;;;;;5036012;28;20484;-74
2022/05/29 11:44:39;;;;;;;7.57;2.38;;;13.10;69.80;;;;;;5019773;28;20045;-80
2022/05/29 11:53:01;;;;;;;5.97;1.73;;;13.50;67.80;;;;;;5035741;28;20141;-75
2022/05/29 11:55:31;;;;;;;5.70;2.35;;;13.50;67.70;;;;;;5035723;28;20029;-74
2022/05/29 11:58:26;;;;;;;7.18;1.33;;;13.60;67.60;;;;;;5035813;28;20044;-75
2022/05/29 12:01:06;;;;;;;5.05;1.63;;;13.60;67.80;;;;;;5032174;28;20053;-78
2022/05/29 12:03:56;;;;;;;12.52;3.03;;;13.60;67.40;;;;;;5032275;28;20079;-77
2022/05/29 12:06:32;;;;;;;6.25;1.52;;;13.50;68.40;;;;;;5032534;28;20041;-76
2022/05/29 12:09:03;;;;;;;8.23;1.65;;;13.40;69.10;;;;;;5031987;28;20130;-75
2022/05/29 12:11:32;;;;;;;8.70;1.38;;;13.20;70.00;;;;;;5015759;28;20034;-76
2022/05/29 12:14:00;;;;;;;6.97;1.70;;;13.20;70.70;;;;;;5032061;28;20034;-75
2022/05/29 12:16:31;;;;;;;7.95;2.03;;;13.00;71.40;;;;;;5015666;28;20041;-73
2022/05/29 12:19:00;;;;;;;7.03;1.50;;;13.10;72.00;;;;;;5032234;28;20042;-77
2022/05/29 12:21:43;;;;;;;4.43;1.30;;;13.10;71.90;;;;;;5031482;28;20450;-76
2022/05/29 12:24:13;;;;;;;6.03;1.85;;;13.20;72.10;;;;;;5032055;28;20046;-75
2022/05/29 12:26:48;;;;;;;7.43;1.20;;;13.20;71.10;;;;;;5032011;28;20120;-76
2022/05/29 12:29:31;;;;;;;3.92;1.10;;;13.20;69.30;;;;;;5032100;28;20088;-78
2022/05/29 12:32:06;;;;;;;9.65;1.55;;;13.20;67.00;;;;;;5032197;28;20540;-76
2022/05/29 12:34:41;;;;;;;;;;;13.30;67.20;;;;;;5032552;28;20038;-77
2022/05/29 12:37:42;;;;;;;6.57;1.58;;;13.50;67.30;;;;;;5015324;28;19924;-73
2022/05/29 12:40:26;;;;;;;5.40;1.33;;;13.60;67.90;;;;;;5028505;28;20056;-75
2022/05/29 12:42:52;;;;;;;;;;;13.70;67.40;;;;;;5015699;28;20505;-78
2022/05/29 12:45:37;;;;;;;9.57;1.50;;;13.80;67.20;;;;;;5015183;28;19924;-77
2022/05/29 12:48:20;;;;;;;7.32;1.55;;;13.80;67.30;;;;;;5031698;28;20095;-74
2022/05/29 12:50:50;;;;;;;6.10;1.77;;;13.70;67.30;;;;;;5031688;28;20045;-78
2022/05/29 12:53:35;;;;;;;6.35;1.30;;;13.70;67.60;;;;;;5031896;28;20280;-79
2022/05/29 12:56:31;;;;;;;5.57;2.17;;;13.70;67.80;;;;;;5031627;28;20124;-79
2022/05/29 12:59:21;;;;;;;8.38;1.67;;;13.60;67.40;;;;;;5031533;28;20041;-75
2022/05/29 13:01:52;;;;;;;8.65;2.05;;;13.40;68.10;;;;;;5015054;28;20045;-76
2022/05/29 13:04:42;;;;;;;7.28;2.33;;;13.50;69.00;;;;;;5015055;28;20041;-78
2022/05/29 13:07:24;;;;;;;5.85;1.67;;;13.50;68.30;;;;;;5031540;28;20041;-79
2022/05/29 13:10:13;;;;;;;7.13;1.35;;;13.50;67.20;;;;;;5031338;28;20042;-79
2022/05/29 13:12:50;;;;;;;10.07;1.85;;;13.60;67.00;;;;;;5031546;28;20049;-75
2022/05/29 13:15:32;;;;;;;7.63;1.80;;;13.70;67.40;;;;;;5031793;28;20029;-74
2022/05/29 13:18:01;;;;;;;7.03;1.40;;;13.80;67.70;;;;;;5031858;28;20099;-76
2022/05/29 13:20:27;;;;;;;7.57;1.60;;;13.90;68.20;;;;;;5031229;28;20045;-72
2022/05/29 13:23:03;;;;;;;5.32;1.70;;;13.80;68.50;;;;;;5031577;28;20045;-74
2022/05/29 13:25:52;;;;;;;6.22;1.58;;;13.70;68.40;;;;;;5031365;28;20056;-73
2022/05/29 13:28:46;;;;;;;7.60;2.08;;;13.50;68.50;;;;;;5031171;28;20045;-77
2022/05/29 13:31:17;;;;;;;5.95;1.38;;;13.40;68.50;;;;;;5030857;28;20540;-74
2022/05/29 13:33:44;;;;;;;6.47;1.20;;;13.40;68.20;;;;;;5033004;28;20110;-71
2022/05/29 13:36:31;;;;;;;6.90;1.70;;;13.40;67.30;;;;;;5034992;28;20044;-73
2022/05/29 13:38:56;;;;;;;7.30;1.60;;;13.40;68.00;;;;;;5034975;28;20048;-77
2022/05/29 13:41:51;;;;;;;8.80;1.50;;;13.40;68.30;;;;;;5018355;28;20038;-75
2022/05/29 13:44:41;;;;;;;8.65;2.38;;;13.50;68.80;;;;;;5007166;28;20041;-74
2022/05/29 13:47:20;;;;;;;8.52;1.98;;;13.50;68.20;;;;;;5034824;28;20045;-76
2022/05/29 13:50:02;;;;;;;8.68;1.63;;;13.50;66.90;;;;;;5034659;28;20052;-75